Time;durP1;ratioP1;P1;durP2;ratioP2;P2;SDS_P1;SDS_P2;PMS_P1;PMS_P2;Temp;Humidity;BMP_temperature;BMP_pressure;BME280_temperature;BME280_humidity;BME280_pressure;Samples;Min_cycle;Max_cycle;Signal;HPM_P1;HPM_P2
2022/01/31 00:01:34;;;;;;;76.93;48.75;;;;;;;;;;4773070;29;87405;-67
2022/01/31 00:04:02;;;;;;;68.60;48.03;;;;;;;;;;4772518;29;89765;-68
2022/01/31 00:06:29;;;;;;;57.33;44.65;;;;;;;;;;4772509;29;88341;-67
2022/01/31 00:08:55;;;;;;;63.33;46.35;;;;;;;;;;4771985;29;86900;-68
2022/01/31 00:11:22;;;;;;;59.95;47.45;;;;;;;;;;4771391;29;87010;-67
2022/01/31 00:13:59;;;;;;;68.95;48.47;;;;;;;;;;4753357;29;87829;-67
2022/01/31 00:16:32;;;;;;;54.88;46.03;;;;;;;;;;4758596;29;87505;-67
2022/01/31 00:18:59;;;;;;;67.63;48.90;;;;;;;;;;4772674;29;86930;-67
2022/01/31 00:21:27;;;;;;;61.60;49.35;;;;;;;;;;4773600;29;86163;-67
2022/01/31 00:23:54;;;;;;;60.53;49.25;;;;;;;;;;4771244;29;89470;-67
2022/01/31 00:26:21;;;;;;;70.40;49.63;;;;;;;;;;4772631;29;88018;-67
2022/01/31 00:28:47;;;;;;;60.17;49.28;;;;;;;;;;4785401;29;87907;-67
2022/01/31 00:31:14;;;;;;;63.05;46.78;;;;;;;;;;4787065;29;86988;-67
2022/01/31 00:33:42;;;;;;;64.72;49.10;;;;;;;;;;4772859;29;88235;-67
2022/01/31 00:36:09;;;;;;;62.97;48.17;;;;;;;;;;4772824;29;87762;-67
2022/01/31 00:38:36;;;;;;;65.63;49.92;;;;;;;;;;4772942;29;86866;-67
2022/01/31 00:41:03;;;;;;;75.40;50.88;;;;;;;;;;4786081;29;87017;-67
2022/01/31 00:43:34;;;;;;;65.03;48.00;;;;;;;;;;4772244;29;88280;-67
2022/01/31 00:46:10;;;;;;;57.80;44.22;;;;;;;;;;4772717;29;87811;-67
2022/01/31 00:48:43;;;;;;;64.90;47.75;;;;;;;;;;4771304;29;86964;-67
2022/01/31 00:51:10;;;;;;;61.22;45.95;;;;;;;;;;4772411;29;86964;-67
2022/01/31 00:53:37;;;;;;;59.30;46.10;;;;;;;;;;4772249;29;88951;-67
2022/01/31 00:56:04;;;;;;;67.85;47.95;;;;;;;;;;4771309;29;88408;-67
2022/01/31 00:58:31;;;;;;;60.17;46.25;;;;;;;;;;4786264;29;87275;-67
2022/01/31 01:00:58;;;;;;;60.17;47.03;;;;;;;;;;4772602;29;86995;-67
2022/01/31 01:03:26;;;;;;;62.85;49.55;;;;;;;;;;4770617;29;89971;-67
2022/01/31 01:05:53;;;;;;;64.88;48.80;;;;;;;;;;4772343;29;89124;-67
2022/01/31 01:08:20;;;;;;;68.47;47.80;;;;;;;;;;4755476;29;87236;-67
2022/01/31 01:10:48;;;;;;;70.07;47.97;;;;;;;;;;4771780;29;86353;-68
2022/01/31 01:13:14;;;;;;;64.47;49.47;;;;;;;;;;4771154;29;89784;-68
2022/01/31 01:15:41;;;;;;;61.58;46.42;;;;;;;;;;4785138;29;91363;-67
2022/01/31 01:18:09;;;;;;;60.30;45.95;;;;;;;;;;4754109;29;87899;-68
2022/01/31 01:20:36;;;;;;;62.40;45.50;;;;;;;;;;4785704;29;86921;-67
2022/01/31 01:23:03;;;;;;;59.55;46.72;;;;;;;;;;4785946;29;91632;-67
2022/01/31 01:25:32;;;;;;;58.92;43.75;;;;;;;;;;4771742;29;88218;-67
2022/01/31 01:27:59;;;;;;;56.63;42.83;;;;;;;;;;4786445;29;86948;-67
2022/01/31 01:30:27;;;;;;;57.25;42.90;;;;;;;;;;4770920;29;87080;-68
2022/01/31 01:35:29;;;;;;;56.45;40.28;;;;;;;;;;4772197;29;87989;-68
2022/01/31 01:37:59;;;;;;;63.50;45.65;;;;;;;;;;4770666;29;87003;-67
2022/01/31 01:40:26;;;;;;;58.72;43.85;;;;;;;;;;4787485;29;87061;-67
2022/01/31 01:42:53;;;;;;;60.38;46.95;;;;;;;;;;4772771;29;92963;-67
2022/01/31 01:45:21;;;;;;;67.82;47.25;;;;;;;;;;4788390;29;90593;-67
2022/01/31 01:47:49;;;;;;;72.60;47.95;;;;;;;;;;4775201;29;87431;-68
2022/01/31 01:50:16;;;;;;;62.47;47.30;;;;;;;;;;4789031;29;86870;-67
2022/01/31 01:52:43;;;;;;;64.88;46.97;;;;;;;;;;4788876;29;88158;-68
2022/01/31 01:55:11;;;;;;;60.58;45.13;;;;;;;;;;4788052;29;91286;-67
2022/01/31 01:57:39;;;;;;;58.67;44.85;;;;;;;;;;4774300;29;87007;-67
2022/01/31 02:00:08;;;;;;;67.55;45.00;;;;;;;;;;4788939;29;86925;-68
2022/01/31 02:02:35;;;;;;;65.03;44.22;;;;;;;;;;4774893;29;87967;-67
2022/01/31 02:05:05;;;;;;;51.58;40.75;;;;;;;;;;4788115;29;88544;-67
2022/01/31 02:07:39;;;;;;;53.85;39.45;;;;;;;;;;4788313;29;88414;-67
2022/01/31 02:10:10;;;;;;;56.10;41.03;;;;;;;;;;4788991;29;86966;-68
2022/01/31 02:12:52;;;;;;;54.72;38.72;;;;;;;;;;4781371;29;88205;-67
2022/01/31 02:15:33;;;;;;;53.40;39.72;;;;;;;;;;4785446;29;88175;-67
2022/01/31 02:18:29;;;;;;;59.33;42.10;;;;;;;;;;4784806;29;87166;-67
2022/01/31 02:20:59;;;;;;;57.25;41.67;;;;;;;;;;4788149;29;87379;-67
2022/01/31 02:23:28;;;;;;;58.05;41.90;;;;;;;;;;4787890;29;88329;-67
2022/01/31 02:26:11;;;;;;;61.65;44.17;;;;;;;;;;4788891;29;88025;-67
2022/01/31 02:28:51;;;;;;;58.42;41.58;;;;;;;;;;4786445;29;87007;-67
2022/01/31 02:31:20;;;;;;;55.75;42.25;;;;;;;;;;4788889;29;86870;-67
2022/01/31 02:33:47;;;;;;;62.42;43.13;;;;;;;;;;4787051;29;92371;-67
2022/01/31 02:36:14;;;;;;;58.90;43.40;;;;;;;;;;4788153;29;90367;-68
2022/01/31 02:38:41;;;;;;;57.15;43.75;;;;;;;;;;4788238;29;87451;-67
2022/01/31 02:41:08;;;;;;;54.80;41.13;;;;;;;;;;4757867;29;87442;-68
2022/01/31 02:43:35;;;;;;;55.35;41.45;;;;;;;;;;4774072;29;87224;-68
2022/01/31 02:46:08;;;;;;;58.38;42.70;;;;;;;;;;4787919;29;88337;-66
2022/01/31 02:48:36;;;;;;;59.53;45.15;;;;;;;;;;4789872;29;87388;-66
2022/01/31 02:51:09;;;;;;;64.25;43.42;;;;;;;;;;4788616;29;86296;-67
2022/01/31 02:53:41;;;;;;;60.00;42.53;;;;;;;;;;4788651;29;90930;-66
2022/01/31 02:56:08;;;;;;;60.00;43.38;;;;;;;;;;4773277;29;89595;-67
2022/01/31 02:58:36;;;;;;;56.45;41.03;;;;;;;;;;4787870;29;88068;-67
2022/01/31 03:01:04;;;;;;;60.83;45.45;;;;;;;;;;4789042;29;87261;-66
2022/01/31 03:03:37;;;;;;;61.63;44.97;;;;;;;;;;4772611;29;91144;-68
2022/01/31 03:06:04;;;;;;;59.22;44.80;;;;;;;;;;4787887;29;90057;-68
2022/01/31 03:08:32;;;;;;;64.32;45.28;;;;;;;;;;4772395;29;87461;-67
2022/01/31 03:11:20;;;;;;;67.50;47.00;;;;;;;;;;4784974;29;87085;-67
2022/01/31 03:14:03;;;;;;;59.80;44.70;;;;;;;;;;4771719;29;91974;-66
2022/01/31 03:16:34;;;;;;;75.55;44.70;;;;;;;;;;4787530;29;88518;-67
2022/01/31 03:19:21;;;;;;;60.63;45.13;;;;;;;;;;4771962;29;86970;-67
2022/01/31 03:21:56;;;;;;;60.03;43.00;;;;;;;;;;4772917;29;86901;-67
2022/01/31 03:24:23;;;;;;;63.78;42.95;;;;;;;;;;4786388;29;91773;-67
2022/01/31 03:26:50;;;;;;;54.60;42.13;;;;;;;;;;4772532;29;90152;-67
2022/01/31 03:29:17;;;;;;;71.75;47.38;;;;;;;;;;4787723;29;86919;-67
2022/01/31 03:31:44;;;;;;;57.40;42.83;;;;;;;;;;4787617;29;87012;-67
2022/01/31 03:34:11;;;;;;;55.58;42.38;;;;;;;;;;4787508;29;88125;-67
2022/01/31 03:36:43;;;;;;;57.08;41.08;;;;;;;;;;4786909;29;91222;-68
2022/01/31 03:39:16;;;;;;;52.38;39.58;;;;;;;;;;4786722;29;86870;-67
2022/01/31 03:41:43;;;;;;;57.30;39.10;;;;;;;;;;4787250;29;86246;-67
2022/01/31 03:44:10;;;;;;;63.05;42.50;;;;;;;;;;4786514;29;91332;-67
2022/01/31 03:46:38;;;;;;;52.75;40.67;;;;;;;;;;4786769;29;89850;-68
2022/01/31 03:49:05;;;;;;;52.13;39.63;;;;;;;;;;4782312;29;87971;-67
2022/01/31 03:51:43;;;;;;;55.88;42.67;;;;;;;;;;4771661;29;87264;-67
2022/01/31 03:54:13;;;;;;;50.97;40.33;;;;;;;;;;4786705;29;90651;-67
2022/01/31 03:56:41;;;;;;;53.90;39.47;;;;;;;;;;4771903;29;88087;-68
2022/01/31 03:59:31;;;;;;;50.42;37.70;;;;;;;;;;4763150;29;87135;-67
2022/01/31 04:01:58;;;;;;;54.33;39.47;;;;;;;;;;4756801;29;87310;-67
2022/01/31 04:04:25;;;;;;;55.42;40.08;;;;;;;;;;4771337;29;88026;-67
2022/01/31 04:06:53;;;;;;;53.47;38.25;;;;;;;;;;4757510;29;88477;-67
2022/01/31 04:09:20;;;;;;;52.90;39.17;;;;;;;;;;4772044;29;87001;-67
2022/01/31 04:11:47;;;;;;;56.10;43.53;;;;;;;;;;4773502;29;87006;-67
2022/01/31 04:14:14;;;;;;;53.67;38.53;;;;;;;;;;4756223;29;88209;-67
2022/01/31 04:16:41;;;;;;;57.72;39.15;;;;;;;;;;4771565;29;88736;-67
2022/01/31 04:19:08;;;;;;;52.80;37.00;;;;;;;;;;4773557;29;86988;-68
2022/01/31 04:21:35;;;;;;;55.88;37.65;;;;;;;;;;4756701;29;87238;-68
2022/01/31 04:24:02;;;;;;;58.63;40.72;;;;;;;;;;4787088;29;87996;-67
2022/01/31 04:26:33;;;;;;;59.13;43.95;;;;;;;;;;4772947;29;87946;-67
2022/01/31 04:29:11;;;;;;;63.72;41.70;;;;;;;;;;4786838;29;86990;-67
2022/01/31 04:31:41;;;;;;;50.47;39.20;;;;;;;;;;4773846;29;86069;-67
2022/01/31 04:34:15;;;;;;;53.05;38.95;;;;;;;;;;4771253;29;87473;-67
2022/01/31 04:36:55;;;;;;;52.72;40.55;;;;;;;;;;4772860;29;87784;-67
2022/01/31 04:39:22;;;;;;;59.05;44.63;;;;;;;;;;4785820;29;88040;-67
2022/01/31 04:41:49;;;;;;;51.45;42.08;;;;;;;;;;4787456;29;87009;-67
2022/01/31 04:44:17;;;;;;;54.55;41.55;;;;;;;;;;4785798;29;88193;-67
2022/01/31 04:46:49;;;;;;;52.90;40.58;;;;;;;;;;4771700;29;87854;-67
2022/01/31 04:49:20;;;;;;;61.20;42.47;;;;;;;;;;4773096;29;86833;-67
2022/01/31 04:51:48;;;;;;;55.35;41.47;;;;;;;;;;4786611;29;86919;-68
2022/01/31 04:54:15;;;;;;;62.22;44.30;;;;;;;;;;4772695;29;88057;-67
2022/01/31 04:56:42;;;;;;;62.70;44.45;;;;;;;;;;4786010;29;87851;-67
2022/01/31 04:59:09;;;;;;;65.43;40.72;;;;;;;;;;4772957;29;87150;-67
2022/01/31 05:01:39;;;;;;;58.75;41.75;;;;;;;;;;4772464;29;86954;-67
2022/01/31 05:04:06;;;;;;;58.10;42.30;;;;;;;;;;4772267;29;88244;-67
2022/01/31 05:06:36;;;;;;;56.70;41.92;;;;;;;;;;4770939;29;88837;-68
2022/01/31 05:09:04;;;;;;;53.80;39.70;;;;;;;;;;4786521;29;87140;-67
2022/01/31 05:11:32;;;;;;;50.20;40.65;;;;;;;;;;4773105;29;86929;-67
2022/01/31 05:13:58;;;;;;;53.78;40.83;;;;;;;;;;4772209;29;88081;-67
2022/01/31 05:16:25;;;;;;;57.72;41.70;;;;;;;;;;4775343;29;87394;-67
2022/01/31 05:18:56;;;;;;;63.15;44.45;;;;;;;;;;4775697;29;86913;-67
2022/01/31 05:21:23;;;;;;;53.85;39.03;;;;;;;;;;4789454;29;86176;-68
2022/01/31 05:23:50;;;;;;;48.03;37.80;;;;;;;;;;4788989;29;87995;-68
2022/01/31 05:26:17;;;;;;;43.45;32.28;;;;;;;;;;4788469;29;87814;-68
2022/01/31 05:28:44;;;;;;;46.63;35.13;;;;;;;;;;4789244;29;87979;-68
2022/01/31 05:31:10;;;;;;;43.20;31.13;;;;;;;;;;4789507;29;86982;-67
2022/01/31 05:33:37;;;;;;;44.00;32.20;;;;;;;;;;4789309;29;87964;-67
2022/01/31 05:36:04;;;;;;;43.13;32.67;;;;;;;;;;4788875;29;87760;-68
2022/01/31 05:38:37;;;;;;;38.15;31.10;;;;;;;;;;4775736;29;86904;-67
2022/01/31 05:41:07;;;;;;;39.40;30.88;;;;;;;;;;4775478;29;87445;-68
2022/01/31 05:43:35;;;;;;;41.75;29.27;;;;;;;;;;4775265;29;87234;-67
2022/01/31 05:46:03;;;;;;;37.28;30.80;;;;;;;;;;4775583;29;87637;-68
2022/01/31 05:48:30;;;;;;;43.83;32.55;;;;;;;;;;4775220;29;88103;-68
2022/01/31 05:50:57;;;;;;;44.90;35.50;;;;;;;;;;4774300;29;86945;-67
2022/01/31 05:53:25;;;;;;;47.15;35.33;;;;;;;;;;4787556;29;89013;-69
2022/01/31 05:55:51;;;;;;;49.55;37.20;;;;;;;;;;4789017;29;88867;-69
2022/01/31 05:58:19;;;;;;;46.85;34.22;;;;;;;;;;4788627;29;87234;-69
2022/01/31 06:00:46;;;;;;;49.75;36.75;;;;;;;;;;4775393;29;86947;-69
2022/01/31 06:03:13;;;;;;;47.63;36.08;;;;;;;;;;4773591;29;88328;-68
2022/01/31 06:05:40;;;;;;;49.63;35.28;;;;;;;;;;4787454;29;89578;-67
2022/01/31 06:08:07;;;;;;;49.53;37.22;;;;;;;;;;4788429;29;87113;-68
2022/01/31 06:10:43;;;;;;;53.70;35.03;;;;;;;;;;4781452;29;86659;-68
2022/01/31 06:13:10;;;;;;;48.35;34.85;;;;;;;;;;4772389;29;88401;-67
2022/01/31 06:15:37;;;;;;;46.42;36.08;;;;;;;;;;4773309;29;87154;-70
2022/01/31 06:18:04;;;;;;;49.65;34.83;;;;;;;;;;4773951;29;87954;-69
2022/01/31 06:20:31;;;;;;;48.85;36.05;;;;;;;;;;4757369;29;87147;-70
2022/01/31 06:22:58;;;;;;;51.40;40.30;;;;;;;;;;4772009;29;89891;-70
2022/01/31 06:25:25;;;;;;;51.28;36.83;;;;;;;;;;4787500;29;89139;-70
2022/01/31 06:27:53;;;;;;;55.50;37.08;;;;;;;;;;4773741;29;86898;-69
2022/01/31 06:30:25;;;;;;;49.30;35.08;;;;;;;;;;4758399;29;86905;-69
2022/01/31 06:32:53;;;;;;;43.85;34.92;;;;;;;;;;4787063;29;91450;-70
2022/01/31 06:35:20;;;;;;;50.60;36.38;;;;;;;;;;4787951;29;88986;-71
2022/01/31 06:37:48;;;;;;;49.03;33.83;;;;;;;;;;4773119;29;87283;-69
2022/01/31 06:40:15;;;;;;;48.58;37.00;;;;;;;;;;4771815;29;87389;-69
2022/01/31 06:42:43;;;;;;;49.97;36.50;;;;;;;;;;4769356;29;88773;-70
2022/01/31 06:45:10;;;;;;;48.05;37.13;;;;;;;;;;4772398;29;90078;-70
2022/01/31 06:47:37;;;;;;;55.50;42.47;;;;;;;;;;4772422;29;87033;-70
2022/01/31 06:50:06;;;;;;;53.97;40.88;;;;;;;;;;4773346;29;87458;-70
2022/01/31 06:52:36;;;;;;;53.78;37.75;;;;;;;;;;4772752;29;89666;-69
2022/01/31 06:55:06;;;;;;;60.83;40.72;;;;;;;;;;4782852;29;90412;-69
2022/01/31 06:57:34;;;;;;;51.25;40.10;;;;;;;;;;4771481;29;86908;-70
2022/01/31 07:00:04;;;;;;;56.45;38.72;;;;;;;;;;4772111;29;86648;-70
2022/01/31 07:02:31;;;;;;;56.92;42.03;;;;;;;;;;4756770;29;89906;-69
2022/01/31 07:05:00;;;;;;;50.33;37.38;;;;;;;;;;4787165;29;89089;-70
2022/01/31 07:07:28;;;;;;;54.03;41.03;;;;;;;;;;4764315;29;87814;-69
2022/01/31 07:09:55;;;;;;;54.75;41.65;;;;;;;;;;4767037;29;87927;-69
2022/01/31 07:12:30;;;;;;;53.17;39.53;;;;;;;;;;4786064;29;87451;-70
2022/01/31 07:14:56;;;;;;;48.42;37.83;;;;;;;;;;4771193;29;87911;-70
2022/01/31 07:17:24;;;;;;;56.60;40.15;;;;;;;;;;4773032;29;87024;-69
2022/01/31 07:19:51;;;;;;;51.83;37.30;;;;;;;;;;4772486;29;87309;-69
2022/01/31 07:22:19;;;;;;;57.13;41.08;;;;;;;;;;4756389;29;89268;-69
2022/01/31 07:24:51;;;;;;;56.72;42.90;;;;;;;;;;4772500;29;88075;-69
2022/01/31 07:27:18;;;;;;;61.50;43.60;;;;;;;;;;4786691;29;87021;-71
2022/01/31 07:29:45;;;;;;;60.85;41.55;;;;;;;;;;4778736;29;87025;-69
2022/01/31 07:32:13;;;;;;;63.25;42.10;;;;;;;;;;4782842;29;89611;-74
2022/01/31 07:34:40;;;;;;;59.50;47.22;;;;;;;;;;4766210;29;90387;-68
2022/01/31 07:37:10;;;;;;;56.13;44.25;;;;;;;;;;4770216;29;87332;-71
2022/01/31 07:39:39;;;;;;;62.88;43.90;;;;;;;;;;4785591;29;86946;-72
2022/01/31 07:42:07;;;;;;;64.35;44.03;;;;;;;;;;4785224;29;87520;-71
2022/01/31 07:44:45;;;;;;;58.00;42.58;;;;;;;;;;4779629;29;90291;-73
2022/01/31 07:47:12;;;;;;;58.60;40.65;;;;;;;;;;4771945;29;87027;-69
2022/01/31 07:49:39;;;;;;;60.50;41.70;;;;;;;;;;4768596;29;86221;-69
2022/01/31 07:52:07;;;;;;;67.25;47.00;;;;;;;;;;4785776;29;89464;-70
2022/01/31 07:54:34;;;;;;;62.83;47.92;;;;;;;;;;4767219;29;87711;-69
2022/01/31 07:57:01;;;;;;;63.88;45.72;;;;;;;;;;4772110;29;88498;-68
2022/01/31 07:59:49;;;;;;;58.58;45.47;;;;;;;;;;4772061;29;87184;-71
2022/01/31 08:02:16;;;;;;;63.70;46.45;;;;;;;;;;4769987;29;88276;-72
2022/01/31 08:04:43;;;;;;;65.45;48.30;;;;;;;;;;4785482;29;88999;-68
2022/01/31 08:07:10;;;;;;;59.90;45.13;;;;;;;;;;4786057;29;86914;-71
2022/01/31 08:09:37;;;;;;;56.58;43.92;;;;;;;;;;4779212;29;87173;-70
2022/01/31 08:12:05;;;;;;;63.00;43.65;;;;;;;;;;4783490;29;87816;-69
2022/01/31 08:14:32;;;;;;;66.95;41.67;;;;;;;;;;4772037;29;87533;-71
2022/01/31 08:17:02;;;;;;;47.97;36.58;;;;;;;;;;4770710;29;86848;-70
2022/01/31 08:19:30;;;;;;;56.25;42.58;;;;;;;;;;4771435;29;87961;-70
2022/01/31 08:22:07;;;;;;;69.97;49.17;;;;;;;;;;4770672;29;89244;-70
2022/01/31 08:24:35;;;;;;;72.93;49.25;;;;;;;;;;4771861;29;87378;-71
2022/01/31 08:27:02;;;;;;;72.78;48.25;;;;;;;;;;4786049;29;87263;-70
2022/01/31 08:29:32;;;;;;;65.45;45.50;;;;;;;;;;4785437;29;86976;-71
2022/01/31 08:32:09;;;;;;;75.53;46.97;;;;;;;;;;4785259;29;87203;-70
2022/01/31 08:37:22;;;;;;;54.50;43.08;;;;;;;;;;4767065;29;87161;-70
2022/01/31 08:39:49;;;;;;;60.85;44.58;;;;;;;;;;4770915;29;86742;-69
2022/01/31 08:42:16;;;;;;;65.32;46.80;;;;;;;;;;4784966;29;87787;-70
2022/01/31 08:44:43;;;;;;;61.95;44.78;;;;;;;;;;4770623;29;88942;-70
2022/01/31 08:47:10;;;;;;;59.30;43.30;;;;;;;;;;4771410;29;88121;-70
2022/01/31 08:49:37;;;;;;;53.97;43.42;;;;;;;;;;4772129;29;86984;-69
2022/01/31 08:52:05;;;;;;;52.08;41.17;;;;;;;;;;4773688;29;87803;-70
2022/01/31 08:54:32;;;;;;;56.65;41.65;;;;;;;;;;4782744;29;90072;-69
2022/01/31 08:56:59;;;;;;;63.53;43.25;;;;;;;;;;4774294;29;86968;-69
2022/01/31 08:59:28;;;;;;;52.10;41.47;;;;;;;;;;4778133;29;87722;-72
2022/01/31 09:02:05;;;;;;;60.95;43.42;;;;;;;;;;4787110;29;87847;-71
2022/01/31 09:04:35;;;;;;;58.67;44.83;;;;;;;;;;4768798;29;89852;-70
2022/01/31 09:07:02;;;;;;;59.10;44.90;;;;;;;;;;4772887;29;86999;-70
2022/01/31 09:09:30;;;;;;;64.47;47.90;;;;;;;;;;4775806;29;87249;-71
2022/01/31 09:12:05;;;;;;;68.10;49.17;;;;;;;;;;4774339;29;88757;-70
2022/01/31 09:14:32;;;;;;;54.28;44.95;;;;;;;;;;4770060;29;90824;-71
2022/01/31 09:17:00;;;;;;;59.45;44.10;;;;;;;;;;4770479;29;87115;-70
2022/01/31 09:19:27;;;;;;;54.65;44.13;;;;;;;;;;4773934;29;87420;-71
2022/01/31 09:21:54;;;;;;;58.50;42.25;;;;;;;;;;4770992;29;87019;-70
2022/01/31 09:24:21;;;;;;;57.30;42.15;;;;;;;;;;4769234;29;88516;-71
2022/01/31 09:26:48;;;;;;;61.53;45.45;;;;;;;;;;4770448;29;87520;-72
2022/01/31 09:29:17;;;;;;;60.13;45.35;;;;;;;;;;4770545;29;86224;-73
2022/01/31 09:31:44;;;;;;;58.10;47.13;;;;;;;;;;4768114;29;87929;-71
2022/01/31 09:34:11;;;;;;;60.78;45.53;;;;;;;;;;4766924;29;87425;-70
2022/01/31 09:36:38;;;;;;;59.92;47.53;;;;;;;;;;4773369;29;88174;-69
2022/01/31 09:39:07;;;;;;;75.25;47.70;;;;;;;;;;4770474;29;86981;-70
2022/01/31 09:41:37;;;;;;;61.17;47.13;;;;;;;;;;4765914;29;87766;-70
2022/01/31 09:49:00;;;;;;;69.07;49.05;;;;;;;;;;4751782;29;87016;-72
2022/01/31 09:51:27;;;;;;;66.05;49.47;;;;;;;;;;4752202;29;88711;-70
2022/01/31 09:53:59;;;;;;;74.82;51.13;;;;;;;;;;4751658;29;88357;-70
2022/01/31 09:56:36;;;;;;;65.38;51.22;;;;;;;;;;4746341;29;87458;-70
2022/01/31 09:59:05;;;;;;;63.72;48.67;;;;;;;;;;4747504;29;86943;-70
2022/01/31 10:01:35;;;;;;;77.10;49.22;;;;;;;;;;4747625;29;89089;-70
2022/01/31 10:04:14;;;;;;;72.55;50.75;;;;;;;;;;4750522;29;88592;-69
2022/01/31 10:06:43;;;;;;;71.28;50.53;;;;;;;;;;4749337;29;87095;-69
2022/01/31 10:09:17;;;;;;;65.70;48.05;;;;;;;;;;4751872;29;87487;-69
2022/01/31 10:11:50;;;;;;;58.65;47.22;;;;;;;;;;4752525;29;90671;-70
2022/01/31 10:17:27;;;;;;;63.90;47.67;;;;;;;;;;4749507;29;87056;-69
2022/01/31 10:20:18;;;;;;;61.50;46.85;;;;;;;;;;4749034;29;86356;-70
2022/01/31 10:22:46;;;;;;;64.55;46.95;;;;;;;;;;4756050;29;87169;-70
2022/01/31 10:25:18;;;;;;;59.13;50.08;;;;;;;;;;4752634;29;88984;-70
2022/01/31 10:28:24;;;;;;;69.60;51.53;;;;;;;;;;4754024;29;87951;-69
2022/01/31 10:30:52;;;;;;;65.20;48.03;;;;;;;;;;4754495;29;86974;-70
2022/01/31 10:33:22;;;;;;;65.32;47.55;;;;;;;;;;4739925;29;89610;-70
2022/01/31 10:35:49;;;;;;;75.82;50.08;;;;;;;;;;4755633;29;87866;-69
2022/01/31 10:38:29;;;;;;;77.40;54.20;;;;;;;;;;4755294;29;87024;-70
2022/01/31 10:50:38;;;;;;;97.50;66.43;;;;;;;;;;4773187;29;89426;-69
2022/01/31 10:52:27;;;;;;;88.53;65.00;;;;;;;;;;4773371;29;87039;-69
2022/01/31 10:55:12;;;;;;;88.32;62.95;;;;;;;;;;4771172;29;90301;-70
2022/01/31 10:57:39;;;;;;;81.55;57.90;;;;;;;;;;4773771;29;88965;-69
2022/01/31 11:00:07;;;;;;;82.10;56.83;;;;;;;;;;4772103;29;87147;-69
2022/01/31 11:02:36;;;;;;;80.75;54.30;;;;;;;;;;4778501;29;86933;-69
2022/01/31 11:05:04;;;;;;;76.78;56.25;;;;;;;;;;4773090;29;87685;-70
2022/01/31 11:07:31;;;;;;;73.45;51.88;;;;;;;;;;4772047;29;88064;-69
2022/01/31 11:09:59;;;;;;;83.72;53.28;;;;;;;;;;4787407;29;86955;-69
2022/01/31 11:12:27;;;;;;;80.88;55.25;;;;;;;;;;4773199;29;86301;-69
2022/01/31 11:14:56;;;;;;;85.43;57.28;;;;;;;;;;4780392;29;88021;-70
2022/01/31 11:17:24;;;;;;;78.63;57.33;;;;;;;;;;4786166;29;88315;-69
2022/01/31 11:19:56;;;;;;;85.43;59.22;;;;;;;;;;4772985;29;87878;-69
2022/01/31 11:22:35;;;;;;;94.65;63.10;;;;;;;;;;4772156;29;87218;-69
2022/01/31 11:25:18;;;;;;;96.28;63.80;;;;;;;;;;4772916;29;87787;-69
2022/01/31 11:27:58;;;;;;;85.13;61.03;;;;;;;;;;4757453;29;87387;-69
2022/01/31 11:30:25;;;;;;;92.80;62.30;;;;;;;;;;4786568;29;87349;-70
2022/01/31 11:32:53;;;;;;;98.50;65.22;;;;;;;;;;4787248;29;86996;-69
2022/01/31 11:35:21;;;;;;;93.13;64.97;;;;;;;;;;4771953;29;87813;-70
2022/01/31 11:37:49;;;;;;;97.28;66.82;;;;;;;;;;4786597;29;89082;-69
2022/01/31 11:40:17;;;;;;;90.57;63.90;;;;;;;;;;4771647;29;86973;-69
2022/01/31 11:42:46;;;;;;;91.38;61.90;;;;;;;;;;4772212;29;88051;-68
2022/01/31 11:45:31;;;;;;;94.35;68.53;;;;;;;;;;4780026;29;89687;-69
2022/01/31 11:48:01;;;;;;;;;;;;;;;;;;4768531;29;88655;-70
2022/01/31 11:50:28;;;;;;;85.20;61.40;;;;;;;;;;4768429;29;86893;-70
2022/01/31 11:52:58;;;;;;;89.60;63.08;;;;;;;;;;4768136;29;87412;-70
2022/01/31 11:55:33;;;;;;;94.68;63.47;;;;;;;;;;4764306;29;87312;-70
2022/01/31 11:58:02;;;;;;;83.95;62.03;;;;;;;;;;4762297;29;87911;-69
2022/01/31 12:00:29;;;;;;;95.35;65.30;;;;;;;;;;4769687;29;86843;-69
2022/01/31 12:03:05;;;;;;;80.97;59.08;;;;;;;;;;4782731;29;86257;-70
2022/01/31 12:05:36;;;;;;;89.13;62.35;;;;;;;;;;4778606;29;89070;-70
2022/01/31 12:08:19;;;;;;;85.22;62.42;;;;;;;;;;4766223;29;87574;-71
2022/01/31 12:10:52;;;;;;;80.43;62.33;;;;;;;;;;4768832;29;88105;-71
2022/01/31 12:13:50;;;;;;;81.57;60.80;;;;;;;;;;4761108;29;89478;-70
2022/01/31 12:17:02;;;;;;;82.22;64.10;;;;;;;;;;4762269;29;87625;-70
2022/01/31 12:22:39;;;;;;;87.60;63.90;;;;;;;;;;4785310;29;87290;-71
2022/01/31 12:25:28;;;;;;;89.15;67.20;;;;;;;;;;4772106;29;87292;-71
2022/01/31 12:27:57;;;;;;;94.63;66.20;;;;;;;;;;4771932;29;88084;-71
2022/01/31 12:30:32;;;;;;;90.43;61.78;;;;;;;;;;4786869;29;87650;-71
2022/01/31 12:33:00;;;;;;;79.72;57.50;;;;;;;;;;4772274;29;86872;-71
2022/01/31 12:35:37;;;;;;;90.72;65.47;;;;;;;;;;4756427;29;87088;-71
2022/01/31 12:38:05;;;;;;;95.53;66.22;;;;;;;;;;4785707;29;89770;-71
2022/01/31 12:40:45;;;;;;;94.07;66.60;;;;;;;;;;4770721;29;88968;-71
2022/01/31 12:44:09;;;;;;;102.80;69.32;;;;;;;;;;4768654;29;87656;-71
2022/01/31 12:46:14;;;;;;;100.10;69.80;;;;;;;;;;4776180;29;87207;-71
2022/01/31 12:48:43;;;;;;;107.03;71.93;;;;;;;;;;4772310;29;87914;-70
2022/01/31 12:51:13;;;;;;;94.43;67.00;;;;;;;;;;4770522;29;87589;-71
2022/01/31 12:53:45;;;;;;;91.22;66.60;;;;;;;;;;4772347;29;87317;-71
2022/01/31 12:56:29;;;;;;;101.15;68.75;;;;;;;;;;4773020;29;86156;-71
2022/01/31 12:59:12;;;;;;;98.63;69.35;;;;;;;;;;4771338;29;87750;-70
2022/01/31 13:01:44;;;;;;;94.70;70.78;;;;;;;;;;4768086;29;88285;-70
2022/01/31 13:04:30;;;;;;;103.78;68.97;;;;;;;;;;4768181;29;88149;-70
2022/01/31 13:07:00;;;;;;;100.65;70.05;;;;;;;;;;4772499;29;86950;-69
2022/01/31 13:09:47;;;;;;;96.93;70.65;;;;;;;;;;4782604;29;87716;-69
2022/01/31 13:12:16;;;;;;;102.18;70.38;;;;;;;;;;4778197;29;87602;-69
2022/01/31 13:14:49;;;;;;;95.20;69.85;;;;;;;;;;4763376;29;87313;-69
2022/01/31 13:17:23;;;;;;;112.85;74.53;;;;;;;;;;4785745;29;86981;-69
2022/01/31 13:19:57;;;;;;;102.68;69.22;;;;;;;;;;4772089;29;88392;-69
2022/01/31 13:22:32;;;;;;;92.65;65.43;;;;;;;;;;4771845;29;87615;-69
2022/01/31 13:25:08;;;;;;;95.88;68.90;;;;;;;;;;4770604;29;86887;-69
2022/01/31 13:27:56;;;;;;;95.45;67.55;;;;;;;;;;4775677;29;87142;-69
2022/01/31 13:30:25;;;;;;;86.13;65.88;;;;;;;;;;4769100;29;90201;-69
2022/01/31 13:32:53;;;;;;;96.10;66.50;;;;;;;;;;4781579;29;89307;-69
2022/01/31 13:35:26;;;;;;;93.82;65.38;;;;;;;;;;4771526;29;86848;-69
2022/01/31 13:37:53;;;;;;;102.72;67.88;;;;;;;;;;4773533;29;87307;-69
2022/01/31 13:40:23;;;;;;;80.68;61.20;;;;;;;;;;4774879;29;87923;-69
2022/01/31 13:43:16;;;;;;;78.65;57.60;;;;;;;;;;4774551;29;87343;-69
2022/01/31 13:45:53;;;;;;;75.07;51.17;;;;;;;;;;4773295;29;87111;-68
2022/01/31 13:48:36;;;;;;;75.85;48.97;;;;;;;;;;4775072;29;86308;-69
2022/01/31 13:51:10;;;;;;;68.97;47.80;;;;;;;;;;4786097;29;88021;-70
2022/01/31 13:53:40;;;;;;;71.28;47.50;;;;;;;;;;4773224;29;87804;-70
2022/01/31 13:56:12;;;;;;;73.35;50.63;;;;;;;;;;4771759;29;87867;-70
2022/01/31 13:58:42;;;;;;;79.90;49.28;;;;;;;;;;4772877;29;87121;-68
2022/01/31 14:01:20;;;;;;;68.00;49.83;;;;;;;;;;4786107;29;90679;-69
2022/01/31 14:03:48;;;;;;;74.05;50.20;;;;;;;;;;4779831;29;88427;-70
2022/01/31 14:06:17;;;;;;;76.18;50.15;;;;;;;;;;4772467;29;86927;-69
2022/01/31 14:08:53;;;;;;;70.88;46.03;;;;;;;;;;4768907;29;87269;-70
2022/01/31 14:11:25;;;;;;;70.05;46.03;;;;;;;;;;4766057;29;87926;-69
2022/01/31 14:13:58;;;;;;;67.78;48.42;;;;;;;;;;4784736;29;88529;-69
2022/01/31 14:16:35;;;;;;;67.57;45.47;;;;;;;;;;4770409;29;87094;-69
2022/01/31 14:19:10;;;;;;;60.38;44.10;;;;;;;;;;4787374;29;86941;-69
2022/01/31 14:21:46;;;;;;;;;;;;;;;;;;4772128;29;89345;-69
2022/01/31 14:24:15;;;;;;;62.30;42.10;;;;;;;;;;4788310;29;87250;-69
2022/01/31 14:27:03;;;;;;;51.17;37.75;;;;;;;;;;4774004;29;86945;-68
2022/01/31 14:29:35;;;;;;;56.55;36.85;;;;;;;;;;4771057;29;86977;-69
2022/01/31 14:32:05;;;;;;;46.95;32.42;;;;;;;;;;4771464;29;88047;-70
2022/01/31 14:34:44;;;;;;;39.50;28.10;;;;;;;;;;4773235;29;87767;-69
2022/01/31 14:37:12;;;;;;;42.85;29.52;;;;;;;;;;4786503;29;87026;-69
2022/01/31 14:47:51;;;;;;;37.45;25.38;;;;;;;;;;4770337;29;87865;-68
2022/01/31 14:50:30;;;;;;;35.78;25.42;;;;;;;;;;4772393;29;87063;-68
2022/01/31 14:53:09;;;;;;;36.08;24.65;;;;;;;;;;4757510;29;87813;-69
2022/01/31 14:55:42;;;;;;;37.00;25.77;;;;;;;;;;4765184;29;87327;-68
2022/01/31 14:58:09;;;;;;;41.05;26.55;;;;;;;;;;4773171;29;86810;-68
2022/01/31 15:00:44;;;;;;;44.92;28.35;;;;;;;;;;4773155;29;87352;-68
2022/01/31 15:03:12;;;;;;;37.97;28.95;;;;;;;;;;4769915;29;87674;-70
2022/01/31 15:05:39;;;;;;;46.80;29.05;;;;;;;;;;4786636;29;87496;-69
2022/01/31 15:08:07;;;;;;;42.38;25.85;;;;;;;;;;4787206;29;86928;-68
2022/01/31 15:10:36;;;;;;;41.55;27.90;;;;;;;;;;4772472;29;87088;-69
2022/01/31 15:13:03;;;;;;;40.83;29.52;;;;;;;;;;4773740;29;89900;-68